sensor_id;sensor_type;location;lat;lon;timestamp;pressure;altitude;pressure_sealevel;temperature;humidity
10606;BME280;5350;42.698;23.148;2023-12-22T00:01:00;92128.69;;;4.83;78.26
10606;BME280;5350;42.698;23.148;2023-12-22T00:03:27;92108.59;;;4.84;77.94
10606;BME280;5350;42.698;23.148;2023-12-22T00:05:54;92120.75;;;4.88;77.95
10606;BME280;5350;42.698;23.148;2023-12-22T00:08:22;92117.28;;;4.93;77.55
10606;BME280;5350;42.698;23.148;2023-12-22T00:10:49;92118.16;;;5.02;77.33
10606;BME280;5350;42.698;23.148;2023-12-22T00:13:16;92114.59;;;4.98;75.92
10606;BME280;5350;42.698;23.148;2023-12-22T00:15:43;92115.84;;;5.01;76.31
10606;BME280;5350;42.698;23.148;2023-12-22T00:18:10;92099.44;;;5.00;75.66
10606;BME280;5350;42.698;23.148;2023-12-22T00:20:36;92092.19;;;4.97;75.84
10606;BME280;5350;42.698;23.148;2023-12-22T00:23:03;92089.50;;;5.02;74.97
10606;BME280;5350;42.698;23.148;2023-12-22T00:25:31;92094.72;;;5.02;74.30
10606;BME280;5350;42.698;23.148;2023-12-22T00:27:58;92054.16;;;5.10;74.16
10606;BME280;5350;42.698;23.148;2023-12-22T00:30:24;92058.59;;;5.09;74.47
10606;BME280;5350;42.698;23.148;2023-12-22T00:32:51;92058.13;;;5.07;74.14
10606;BME280;5350;42.698;23.148;2023-12-22T00:35:18;92048.94;;;5.10;73.97
10606;BME280;5350;42.698;23.148;2023-12-22T00:37:44;92048.66;;;5.11;73.45
10606;BME280;5350;42.698;23.148;2023-12-22T00:40:11;92066.78;;;5.16;73.38
10606;BME280;5350;42.698;23.148;2023-12-22T00:42:40;92061.19;;;5.23;72.21
10606;BME280;5350;42.698;23.148;2023-12-22T00:45:07;92061.84;;;5.28;70.86
10606;BME280;5350;42.698;23.148;2023-12-22T00:47:33;92074.00;;;5.33;70.65
10606;BME280;5350;42.698;23.148;2023-12-22T00:50:01;92070.03;;;5.35;69.26
10606;BME280;5350;42.698;23.148;2023-12-22T00:52:28;92075.91;;;5.41;69.17
10606;BME280;5350;42.698;23.148;2023-12-22T00:54:54;92088.44;;;5.52;68.21
10606;BME280;5350;42.698;23.148;2023-12-22T00:57:21;92100.88;;;5.55;68.42
10606;BME280;5350;42.698;23.148;2023-12-22T00:59:49;92087.75;;;5.60;66.39
10606;BME280;5350;42.698;23.148;2023-12-22T01:02:16;92081.03;;;5.68;65.88
10606;BME280;5350;42.698;23.148;2023-12-22T01:04:43;92075.81;;;5.68;65.31
10606;BME280;5350;42.698;23.148;2023-12-22T01:07:10;92075.09;;;5.76;65.59
10606;BME280;5350;42.698;23.148;2023-12-22T01:09:38;92084.50;;;5.77;65.73
10606;BME280;5350;42.698;23.148;2023-12-22T01:12:04;92080.06;;;5.78;66.06
10606;BME280;5350;42.698;23.148;2023-12-22T01:14:32;92071.13;;;5.79;65.59
10606;BME280;5350;42.698;23.148;2023-12-22T01:17:00;92075.31;;;5.80;64.83
10606;BME280;5350;42.698;23.148;2023-12-22T01:19:27;92078.50;;;5.77;65.54
10606;BME280;5350;42.698;23.148;2023-12-22T01:21:54;92077.91;;;5.80;65.31
10606;BME280;5350;42.698;23.148;2023-12-22T01:24:20;92078.09;;;5.83;65.32
10606;BME280;5350;42.698;23.148;2023-12-22T01:26:47;92078.00;;;5.75;66.09
10606;BME280;5350;42.698;23.148;2023-12-22T01:29:14;92079.09;;;5.74;67.50
10606;BME280;5350;42.698;23.148;2023-12-22T01:31:40;92066.97;;;5.55;67.29
10606;BME280;5350;42.698;23.148;2023-12-22T01:34:08;92069.00;;;5.58;68.79
10606;BME280;5350;42.698;23.148;2023-12-22T01:36:35;92061.59;;;5.52;70.89
10606;BME280;5350;42.698;23.148;2023-12-22T01:39:02;92067.44;;;5.35;71.92
10606;BME280;5350;42.698;23.148;2023-12-22T01:41:29;92041.50;;;5.17;70.91
10606;BME280;5350;42.698;23.148;2023-12-22T01:43:56;92047.38;;;5.22;70.52
10606;BME280;5350;42.698;23.148;2023-12-22T01:46:23;92040.75;;;5.38;69.64
10606;BME280;5350;42.698;23.148;2023-12-22T01:48:49;92043.72;;;5.45;68.88
10606;BME280;5350;42.698;23.148;2023-12-22T01:51:18;92041.31;;;5.49;69.08
10606;BME280;5350;42.698;23.148;2023-12-22T01:53:45;92037.81;;;5.53;67.93
10606;BME280;5350;42.698;23.148;2023-12-22T01:56:12;92034.97;;;5.63;67.41
10606;BME280;5350;42.698;23.148;2023-12-22T01:58:39;92043.97;;;5.57;67.71
10606;BME280;5350;42.698;23.148;2023-12-22T02:01:07;92042.31;;;5.61;68.61
10606;BME280;5350;42.698;23.148;2023-12-22T02:03:33;92037.31;;;5.65;67.58
10606;BME280;5350;42.698;23.148;2023-12-22T02:06:02;92046.81;;;5.69;67.34
10606;BME280;5350;42.698;23.148;2023-12-22T02:08:31;92045.19;;;5.74;66.78
10606;BME280;5350;42.698;23.148;2023-12-22T02:10:59;92042.56;;;5.74;67.06
10606;BME280;5350;42.698;23.148;2023-12-22T02:13:26;92036.66;;;5.82;66.40
10606;BME280;5350;42.698;23.148;2023-12-22T02:16:00;92034.03;;;5.82;65.50
10606;BME280;5350;42.698;23.148;2023-12-22T02:18:33;92042.13;;;5.80;66.19
10606;BME280;5350;42.698;23.148;2023-12-22T02:21:00;92031.13;;;5.83;66.31
10606;BME280;5350;42.698;23.148;2023-12-22T02:23:28;92022.25;;;5.84;66.63
10606;BME280;5350;42.698;23.148;2023-12-22T02:26:00;92027.88;;;5.78;66.70
10606;BME280;5350;42.698;23.148;2023-12-22T02:28:29;92021.88;;;5.77;66.69
10606;BME280;5350;42.698;23.148;2023-12-22T02:31:02;92031.06;;;5.75;67.05
10606;BME280;5350;42.698;23.148;2023-12-22T02:33:31;92005.56;;;5.72;66.90
10606;BME280;5350;42.698;23.148;2023-12-22T02:36:03;92008.41;;;5.61;68.37
10606;BME280;5350;42.698;23.148;2023-12-22T02:38:33;91996.38;;;5.52;68.21
10606;BME280;5350;42.698;23.148;2023-12-22T02:41:01;92013.09;;;5.51;68.88
10606;BME280;5350;42.698;23.148;2023-12-22T02:43:28;91998.81;;;5.48;68.66
10606;BME280;5350;42.698;23.148;2023-12-22T02:45:55;92002.38;;;5.52;69.25
10606;BME280;5350;42.698;23.148;2023-12-22T02:48:22;92010.00;;;5.49;68.82
10606;BME280;5350;42.698;23.148;2023-12-22T02:50:49;91992.66;;;5.44;69.21
10606;BME280;5350;42.698;23.148;2023-12-22T02:53:15;91996.50;;;5.47;69.63
10606;BME280;5350;42.698;23.148;2023-12-22T02:55:43;92002.66;;;5.51;69.56
10606;BME280;5350;42.698;23.148;2023-12-22T02:58:10;91984.34;;;5.42;69.58
10606;BME280;5350;42.698;23.148;2023-12-22T03:00:37;91985.91;;;5.43;70.14
10606;BME280;5350;42.698;23.148;2023-12-22T03:03:04;91984.72;;;5.49;69.34
10606;BME280;5350;42.698;23.148;2023-12-22T03:05:30;91971.19;;;5.47;69.89
10606;BME280;5350;42.698;23.148;2023-12-22T03:07:57;91966.28;;;5.46;69.94
10606;BME280;5350;42.698;23.148;2023-12-22T03:10:24;91974.13;;;5.46;70.17
10606;BME280;5350;42.698;23.148;2023-12-22T03:12:52;91984.72;;;5.49;70.68
10606;BME280;5350;42.698;23.148;2023-12-22T03:15:19;91978.06;;;5.43;70.74
10606;BME280;5350;42.698;23.148;2023-12-22T03:17:45;91982.34;;;5.39;71.25
10606;BME280;5350;42.698;23.148;2023-12-22T03:20:12;91978.78;;;5.35;71.15
10606;BME280;5350;42.698;23.148;2023-12-22T03:22:39;91996.75;;;5.37;72.68
10606;BME280;5350;42.698;23.148;2023-12-22T03:25:06;91984.78;;;5.36;74.50
10606;BME280;5350;42.698;23.148;2023-12-22T03:27:33;91971.06;;;5.30;75.90
10606;BME280;5350;42.698;23.148;2023-12-22T03:30:01;91979.84;;;5.34;75.64
10606;BME280;5350;42.698;23.148;2023-12-22T03:32:29;91976.75;;;5.32;77.03
10606;BME280;5350;42.698;23.148;2023-12-22T03:34:55;91967.28;;;5.36;77.67
10606;BME280;5350;42.698;23.148;2023-12-22T03:37:22;91974.53;;;5.39;79.29
10606;BME280;5350;42.698;23.148;2023-12-22T03:39:48;91958.78;;;5.44;79.22
10606;BME280;5350;42.698;23.148;2023-12-22T03:42:15;91964.88;;;5.40;80.01
10606;BME280;5350;42.698;23.148;2023-12-22T03:44:42;91965.44;;;5.37;79.16
10606;BME280;5350;42.698;23.148;2023-12-22T03:47:10;91976.97;;;5.36;78.61
10606;BME280;5350;42.698;23.148;2023-12-22T03:49:36;91967.59;;;5.35;79.20
10606;BME280;5350;42.698;23.148;2023-12-22T03:52:03;91975.09;;;5.36;80.15
10606;BME280;5350;42.698;23.148;2023-12-22T03:54:30;91972.97;;;5.38;80.98
10606;BME280;5350;42.698;23.148;2023-12-22T03:56:57;91979.13;;;5.42;80.87
10606;BME280;5350;42.698;23.148;2023-12-22T03:59:23;91975.72;;;5.33;80.97
10606;BME280;5350;42.698;23.148;2023-12-22T04:01:51;91970.09;;;5.40;80.63
10606;BME280;5350;42.698;23.148;2023-12-22T04:04:20;91987.66;;;5.34;83.16
10606;BME280;5350;42.698;23.148;2023-12-22T04:06:47;91976.19;;;5.35;82.52
10606;BME280;5350;42.698;23.148;2023-12-22T04:09:14;91981.22;;;5.32;83.78
10606;BME280;5350;42.698;23.148;2023-12-22T04:11:40;91978.72;;;5.27;87.21
10606;BME280;5350;42.698;23.148;2023-12-22T04:14:07;91981.63;;;5.25;88.08
10606;BME280;5350;42.698;23.148;2023-12-22T04:16:36;91981.16;;;5.23;88.55
10606;BME280;5350;42.698;23.148;2023-12-22T04:19:03;91982.75;;;5.11;90.88
10606;BME280;5350;42.698;23.148;2023-12-22T04:21:31;91982.38;;;5.04;93.11
10606;BME280;5350;42.698;23.148;2023-12-22T04:23:57;91980.63;;;4.99;96.23
10606;BME280;5350;42.698;23.148;2023-12-22T04:26:24;91976.44;;;4.90;98.89
10606;BME280;5350;42.698;23.148;2023-12-22T04:28:51;91973.75;;;4.81;99.31
10606;BME280;5350;42.698;23.148;2023-12-22T04:31:17;91961.78;;;4.80;100.00
10606;BME280;5350;42.698;23.148;2023-12-22T04:33:44;91956.44;;;4.63;100.00
10606;BME280;5350;42.698;23.148;2023-12-22T04:36:11;91955.38;;;4.50;100.00
10606;BME280;5350;42.698;23.148;2023-12-22T04:38:39;91962.50;;;4.45;100.00
10606;BME280;5350;42.698;23.148;2023-12-22T04:41:06;91944.97;;;4.37;100.00
10606;BME280;5350;42.698;23.148;2023-12-22T04:43:33;91938.91;;;4.28;100.00
10606;BME280;5350;42.698;23.148;2023-12-22T04:45:59;91934.69;;;4.18;100.00
10606;BME280;5350;42.698;23.148;2023-12-22T04:48:26;91940.28;;;4.25;100.00
10606;BME280;5350;42.698;23.148;2023-12-22T04:50:53;91939.88;;;4.18;100.00
10606;BME280;5350;42.698;23.148;2023-12-22T04:53:19;91919.25;;;4.22;100.00
10606;BME280;5350;42.698;23.148;2023-12-22T04:55:47;91911.44;;;4.22;100.00
10606;BME280;5350;42.698;23.148;2023-12-22T04:58:14;91914.84;;;4.09;100.00
10606;BME280;5350;42.698;23.148;2023-12-22T05:00:41;91920.72;;;4.14;100.00
10606;BME280;5350;42.698;23.148;2023-12-22T05:03:08;91895.34;;;4.20;100.00
10606;BME280;5350;42.698;23.148;2023-12-22T05:05:34;91919.94;;;4.14;100.00
10606;BME280;5350;42.698;23.148;2023-12-22T05:08:01;91917.06;;;4.15;100.00
10606;BME280;5350;42.698;23.148;2023-12-22T05:10:28;91908.97;;;4.17;100.00
10606;BME280;5350;42.698;23.148;2023-12-22T05:12:56;91916.16;;;4.20;100.00
10606;BME280;5350;42.698;23.148;2023-12-22T05:15:23;91924.28;;;4.18;100.00
10606;BME280;5350;42.698;23.148;2023-12-22T05:17:49;91925.63;;;4.16;100.00
10606;BME280;5350;42.698;23.148;2023-12-22T05:20:16;91933.72;;;4.14;100.00
10606;BME280;5350;42.698;23.148;2023-12-22T05:22:43;91924.09;;;4.15;100.00
10606;BME280;5350;42.698;23.148;2023-12-22T05:25:09;91937.38;;;4.13;100.00
10606;BME280;5350;42.698;23.148;2023-12-22T05:27:36;91926.22;;;4.13;100.00
10606;BME280;5350;42.698;23.148;2023-12-22T05:30:06;91925.72;;;4.11;100.00
10606;BME280;5350;42.698;23.148;2023-12-22T05:32:33;91913.69;;;4.15;100.00
10606;BME280;5350;42.698;23.148;2023-12-22T05:34:59;91913.56;;;4.20;100.00
10606;BME280;5350;42.698;23.148;2023-12-22T05:37:26;91930.25;;;4.19;100.00
10606;BME280;5350;42.698;23.148;2023-12-22T05:39:53;91929.66;;;4.22;100.00
10606;BME280;5350;42.698;23.148;2023-12-22T05:42:21;91921.75;;;4.27;100.00
10606;BME280;5350;42.698;23.148;2023-12-22T05:44:47;91923.09;;;4.24;100.00
10606;BME280;5350;42.698;23.148;2023-12-22T05:47:16;91921.94;;;4.30;100.00
10606;BME280;5350;42.698;23.148;2023-12-22T05:49:43;91916.94;;;4.34;100.00
10606;BME280;5350;42.698;23.148;2023-12-22T05:52:09;91919.44;;;4.39;100.00
10606;BME280;5350;42.698;23.148;2023-12-22T05:54:37;91915.09;;;4.34;100.00
10606;BME280;5350;42.698;23.148;2023-12-22T05:57:04;91925.22;;;4.36;100.00
10606;BME280;5350;42.698;23.148;2023-12-22T05:59:32;91920.28;;;4.34;100.00
10606;BME280;5350;42.698;23.148;2023-12-22T06:02:00;91918.94;;;4.37;100.00
10606;BME280;5350;42.698;23.148;2023-12-22T06:04:28;91927.84;;;4.36;100.00
10606;BME280;5350;42.698;23.148;2023-12-22T06:06:54;91931.97;;;4.37;100.00
10606;BME280;5350;42.698;23.148;2023-12-22T06:09:21;91937.56;;;4.30;100.00
10606;BME280;5350;42.698;23.148;2023-12-22T06:11:48;91925.31;;;4.31;100.00
10606;BME280;5350;42.698;23.148;2023-12-22T06:14:15;91919.63;;;4.29;100.00
10606;BME280;5350;42.698;23.148;2023-12-22T06:16:41;91919.72;;;4.24;100.00
10606;BME280;5350;42.698;23.148;2023-12-22T06:19:08;91931.69;;;4.25;100.00
10606;BME280;5350;42.698;23.148;2023-12-22T06:21:38;91927.66;;;4.19;100.00
10606;BME280;5350;42.698;23.148;2023-12-22T06:24:07;91929.78;;;4.17;100.00
10606;BME280;5350;42.698;23.148;2023-12-22T06:26:35;91917.72;;;4.21;100.00
10606;BME280;5350;42.698;23.148;2023-12-22T06:29:01;91917.91;;;4.24;100.00
10606;BME280;5350;42.698;23.148;2023-12-22T06:31:29;91919.25;;;4.22;100.00
10606;BME280;5350;42.698;23.148;2023-12-22T06:33:55;91920.81;;;4.23;100.00
10606;BME280;5350;42.698;23.148;2023-12-22T06:36:26;91923.50;;;4.18;100.00
10606;BME280;5350;42.698;23.148;2023-12-22T06:38:54;91924.56;;;4.17;100.00
10606;BME280;5350;42.698;23.148;2023-12-22T06:41:21;91939.50;;;4.25;100.00
10606;BME280;5350;42.698;23.148;2023-12-22T06:43:48;91935.34;;;4.24;100.00
10606;BME280;5350;42.698;23.148;2023-12-22T06:46:15;91959.91;;;4.18;100.00
10606;BME280;5350;42.698;23.148;2023-12-22T06:48:42;91949.91;;;4.11;100.00
10606;BME280;5350;42.698;23.148;2023-12-22T06:51:17;91951.25;;;4.09;100.00
10606;BME280;5350;42.698;23.148;2023-12-22T06:53:44;91945.97;;;4.00;100.00
10606;BME280;5350;42.698;23.148;2023-12-22T06:56:20;91985.72;;;4.00;100.00
10606;BME280;5350;42.698;23.148;2023-12-22T06:58:48;91957.22;;;3.95;100.00
10606;BME280;5350;42.698;23.148;2023-12-22T07:01:18;91956.75;;;3.93;100.00
10606;BME280;5350;42.698;23.148;2023-12-22T07:03:46;91966.06;;;3.94;100.00
10606;BME280;5350;42.698;23.148;2023-12-22T07:06:14;91953.84;;;3.95;100.00
10606;BME280;5350;42.698;23.148;2023-12-22T07:08:41;91955.66;;;3.94;100.00
10606;BME280;5350;42.698;23.148;2023-12-22T07:11:09;91963.00;;;3.92;100.00
10606;BME280;5350;42.698;23.148;2023-12-22T07:13:37;91964.53;;;3.93;100.00
10606;BME280;5350;42.698;23.148;2023-12-22T07:16:05;91953.06;;;3.94;100.00
10606;BME280;5350;42.698;23.148;2023-12-22T07:18:32;91970.91;;;3.87;100.00
10606;BME280;5350;42.698;23.148;2023-12-22T07:20:59;91968.00;;;3.89;100.00
10606;BME280;5350;42.698;23.148;2023-12-22T07:23:26;91970.78;;;3.92;100.00
10606;BME280;5350;42.698;23.148;2023-12-22T07:25:53;91977.84;;;3.92;100.00
10606;BME280;5350;42.698;23.148;2023-12-22T07:28:20;91978.59;;;3.92;100.00
10606;BME280;5350;42.698;23.148;2023-12-22T07:30:48;91973.63;;;3.96;100.00
10606;BME280;5350;42.698;23.148;2023-12-22T07:33:14;91975.53;;;4.04;100.00
10606;BME280;5350;42.698;23.148;2023-12-22T07:35:41;91981.59;;;3.99;100.00
10606;BME280;5350;42.698;23.148;2023-12-22T07:38:08;91970.16;;;4.14;100.00
10606;BME280;5350;42.698;23.148;2023-12-22T07:40:35;91978.06;;;4.23;100.00
10606;BME280;5350;42.698;23.148;2023-12-22T07:43:02;91976.91;;;4.29;100.00
10606;BME280;5350;42.698;23.148;2023-12-22T07:45:29;91963.41;;;4.27;100.00
10606;BME280;5350;42.698;23.148;2023-12-22T07:47:57;91978.44;;;4.30;100.00
10606;BME280;5350;42.698;23.148;2023-12-22T07:50:24;91986.13;;;4.35;100.00
10606;BME280;5350;42.698;23.148;2023-12-22T07:52:50;91985.75;;;4.28;100.00
10606;BME280;5350;42.698;23.148;2023-12-22T07:55:17;91998.28;;;4.26;100.00
10606;BME280;5350;42.698;23.148;2023-12-22T07:57:44;92001.38;;;4.28;100.00
10606;BME280;5350;42.698;23.148;2023-12-22T08:00:12;91995.41;;;4.27;100.00
10606;BME280;5350;42.698;23.148;2023-12-22T08:02:39;92004.84;;;4.23;100.00
10606;BME280;5350;42.698;23.148;2023-12-22T08:05:08;91999.66;;;4.23;100.00
10606;BME280;5350;42.698;23.148;2023-12-22T08:07:35;92007.53;;;4.18;100.00
10606;BME280;5350;42.698;23.148;2023-12-22T08:10:02;92014.09;;;4.16;100.00
10606;BME280;5350;42.698;23.148;2023-12-22T08:12:28;92032.47;;;4.05;100.00
10606;BME280;5350;42.698;23.148;2023-12-22T08:14:57;92028.25;;;4.10;100.00
10606;BME280;5350;42.698;23.148;2023-12-22T08:17:24;92032.59;;;4.14;100.00
10606;BME280;5350;42.698;23.148;2023-12-22T08:19:50;92027.69;;;4.26;100.00
10606;BME280;5350;42.698;23.148;2023-12-22T08:22:18;92029.34;;;4.36;100.00
10606;BME280;5350;42.698;23.148;2023-12-22T08:24:45;92019.69;;;4.36;100.00
10606;BME280;5350;42.698;23.148;2023-12-22T08:27:13;92037.03;;;4.41;100.00
10606;BME280;5350;42.698;23.148;2023-12-22T08:29:39;92030.88;;;4.50;100.00
10606;BME280;5350;42.698;23.148;2023-12-22T08:32:06;92032.22;;;4.61;100.00
10606;BME280;5350;42.698;23.148;2023-12-22T08:34:33;92036.38;;;4.62;100.00
10606;BME280;5350;42.698;23.148;2023-12-22T08:37:00;92042.94;;;4.60;100.00
10606;BME280;5350;42.698;23.148;2023-12-22T08:39:28;92029.72;;;4.56;100.00
10606;BME280;5350;42.698;23.148;2023-12-22T08:41:55;92038.38;;;4.65;100.00
10606;BME280;5350;42.698;23.148;2023-12-22T08:44:21;92046.97;;;4.66;100.00
10606;BME280;5350;42.698;23.148;2023-12-22T08:46:48;92049.00;;;4.55;100.00
10606;BME280;5350;42.698;23.148;2023-12-22T08:49:15;92043.22;;;4.58;100.00
10606;BME280;5350;42.698;23.148;2023-12-22T08:51:42;92042.94;;;4.60;100.00
10606;BME280;5350;42.698;23.148;2023-12-22T08:54:08;92049.09;;;4.64;100.00
10606;BME280;5350;42.698;23.148;2023-12-22T08:56:36;92048.22;;;4.68;100.00
10606;BME280;5350;42.698;23.148;2023-12-22T08:59:03;92053.06;;;4.75;100.00
10606;BME280;5350;42.698;23.148;2023-12-22T09:01:30;92056.13;;;4.77;100.00
10606;BME280;5350;42.698;23.148;2023-12-22T09:03:56;92069.25;;;4.72;100.00
10606;BME280;5350;42.698;23.148;2023-12-22T09:06:24;92071.78;;;4.77;100.00
10606;BME280;5350;42.698;23.148;2023-12-22T09:08:51;92078.69;;;4.95;100.00
10606;BME280;5350;42.698;23.148;2023-12-22T09:11:20;92070.00;;;5.00;100.00
10606;BME280;5350;42.698;23.148;2023-12-22T09:13:48;92077.72;;;5.05;100.00
10606;BME280;5350;42.698;23.148;2023-12-22T09:16:20;92095.97;;;5.05;100.00
10606;BME280;5350;42.698;23.148;2023-12-22T09:18:47;92089.47;;;5.16;100.00
10606;BME280;5350;42.698;23.148;2023-12-22T09:21:13;92096.81;;;5.27;100.00
10606;BME280;5350;42.698;23.148;2023-12-22T09:23:40;92099.88;;;5.29;100.00
10606;BME280;5350;42.698;23.148;2023-12-22T09:26:09;92091.94;;;5.34;100.00
10606;BME280;5350;42.698;23.148;2023-12-22T09:28:36;92094.34;;;5.44;100.00
10606;BME280;5350;42.698;23.148;2023-12-22T09:31:04;92086.19;;;5.59;100.00
10606;BME280;5350;42.698;23.148;2023-12-22T09:33:32;92084.53;;;5.63;100.00
10606;BME280;5350;42.698;23.148;2023-12-22T09:35:59;92083.22;;;5.75;100.00
10606;BME280;5350;42.698;23.148;2023-12-22T09:38:26;92078.88;;;5.84;100.00
10606;BME280;5350;42.698;23.148;2023-12-22T09:40:53;92070.09;;;5.80;100.00
10606;BME280;5350;42.698;23.148;2023-12-22T09:43:21;92062.34;;;5.88;100.00
10606;BME280;5350;42.698;23.148;2023-12-22T09:45:49;92064.41;;;6.00;100.00
10606;BME280;5350;42.698;23.148;2023-12-22T09:48:18;92067.06;;;6.08;100.00
10606;BME280;5350;42.698;23.148;2023-12-22T09:50:52;92080.22;;;6.03;100.00
10606;BME280;5350;42.698;23.148;2023-12-22T09:53:19;92074.00;;;5.91;100.00
10606;BME280;5350;42.698;23.148;2023-12-22T09:55:49;92070.97;;;5.97;100.00
10606;BME280;5350;42.698;23.148;2023-12-22T09:58:16;92067.72;;;5.92;100.00
10606;BME280;5350;42.698;23.148;2023-12-22T10:00:43;92056.22;;;5.93;100.00
10606;BME280;5350;42.698;23.148;2023-12-22T10:03:11;92067.59;;;5.97;100.00
10606;BME280;5350;42.698;23.148;2023-12-22T10:05:40;92062.63;;;6.09;100.00
10606;BME280;5350;42.698;23.148;2023-12-22T10:08:09;92058.41;;;6.21;100.00
10606;BME280;5350;42.698;23.148;2023-12-22T10:10:38;92046.56;;;6.24;100.00
10606;BME280;5350;42.698;23.148;2023-12-22T10:13:05;92040.91;;;6.30;100.00
10606;BME280;5350;42.698;23.148;2023-12-22T10:15:36;92038.44;;;6.56;100.00
10606;BME280;5350;42.698;23.148;2023-12-22T10:18:06;92029.50;;;6.57;100.00
10606;BME280;5350;42.698;23.148;2023-12-22T10:20:34;92022.16;;;6.59;100.00
10606;BME280;5350;42.698;23.148;2023-12-22T10:23:03;92026.44;;;6.64;100.00
10606;BME280;5350;42.698;23.148;2023-12-22T10:25:30;92036.56;;;6.48;100.00
10606;BME280;5350;42.698;23.148;2023-12-22T10:27:57;92034.47;;;6.67;100.00
10606;BME280;5350;42.698;23.148;2023-12-22T10:30:24;92043.44;;;6.83;100.00
10606;BME280;5350;42.698;23.148;2023-12-22T10:32:52;92032.34;;;6.86;100.00
10606;BME280;5350;42.698;23.148;2023-12-22T10:35:19;92023.47;;;6.87;100.00
10606;BME280;5350;42.698;23.148;2023-12-22T10:37:46;92011.44;;;6.86;100.00
10606;BME280;5350;42.698;23.148;2023-12-22T10:40:15;92013.19;;;6.99;100.00
10606;BME280;5350;42.698;23.148;2023-12-22T10:42:42;91999.22;;;7.12;100.00
10606;BME280;5350;42.698;23.148;2023-12-22T10:45:09;91992.28;;;7.25;100.00
10606;BME280;5350;42.698;23.148;2023-12-22T10:47:37;91993.53;;;7.19;100.00
10606;BME280;5350;42.698;23.148;2023-12-22T10:50:05;92002.59;;;7.21;100.00
10606;BME280;5350;42.698;23.148;2023-12-22T10:52:32;91996.16;;;7.45;100.00
10606;BME280;5350;42.698;23.148;2023-12-22T10:54:59;91999.25;;;7.47;100.00
10606;BME280;5350;42.698;23.148;2023-12-22T10:57:27;91998.59;;;7.58;100.00
10606;BME280;5350;42.698;23.148;2023-12-22T10:59:56;92007.97;;;7.68;100.00
10606;BME280;5350;42.698;23.148;2023-12-22T11:02:27;91992.44;;;7.80;100.00
10606;BME280;5350;42.698;23.148;2023-12-22T11:04:57;91984.53;;;7.97;100.00
10606;BME280;5350;42.698;23.148;2023-12-22T11:07:28;91978.06;;;8.03;100.00
10606;BME280;5350;42.698;23.148;2023-12-22T11:09:56;91958.25;;;8.40;99.47
10606;BME280;5350;42.698;23.148;2023-12-22T11:12:31;91963.16;;;8.70;94.56
10606;BME280;5350;42.698;23.148;2023-12-22T11:14:58;91960.28;;;8.93;94.38
10606;BME280;5350;42.698;23.148;2023-12-22T11:17:26;91966.56;;;8.71;88.67
10606;BME280;5350;42.698;23.148;2023-12-22T11:19:55;91959.44;;;8.51;89.84
10606;BME280;5350;42.698;23.148;2023-12-22T11:22:24;91964.88;;;8.37;90.88
10606;BME280;5350;42.698;23.148;2023-12-22T11:24:52;91968.91;;;8.26;93.25
10606;BME280;5350;42.698;23.148;2023-12-22T11:27:20;91979.69;;;8.16;95.29
10606;BME280;5350;42.698;23.148;2023-12-22T11:29:49;91989.00;;;8.05;94.20
10606;BME280;5350;42.698;23.148;2023-12-22T11:32:17;91986.31;;;8.22;95.74
10606;BME280;5350;42.698;23.148;2023-12-22T11:34:45;92002.03;;;8.14;93.65
10606;BME280;5350;42.698;23.148;2023-12-22T11:37:12;92005.44;;;8.05;94.05
10606;BME280;5350;42.698;23.148;2023-12-22T11:39:39;92021.16;;;7.97;94.62
10606;BME280;5350;42.698;23.148;2023-12-22T11:42:08;92032.63;;;7.75;95.41
10606;BME280;5350;42.698;23.148;2023-12-22T11:44:36;92028.94;;;7.59;97.52
10606;BME280;5350;42.698;23.148;2023-12-22T11:47:06;92015.22;;;7.54;98.69
10606;BME280;5350;42.698;23.148;2023-12-22T11:49:33;92023.84;;;7.46;98.49
10606;BME280;5350;42.698;23.148;2023-12-22T11:52:09;92021.09;;;7.51;98.73
10606;BME280;5350;42.698;23.148;2023-12-22T11:54:46;92030.78;;;7.59;98.91
10606;BME280;5350;42.698;23.148;2023-12-22T11:57:34;92042.16;;;7.54;97.72
10606;BME280;5350;42.698;23.148;2023-12-22T12:00:05;92049.38;;;7.32;100.00
10606;BME280;5350;42.698;23.148;2023-12-22T12:02:34;92029.03;;;7.03;100.00
10606;BME280;5350;42.698;23.148;2023-12-22T12:05:03;92046.06;;;6.92;99.60
10606;BME280;5350;42.698;23.148;2023-12-22T12:07:37;92049.00;;;6.90;100.00
10606;BME280;5350;42.698;23.148;2023-12-22T12:10:05;92035.28;;;6.85;100.00
10606;BME280;5350;42.698;23.148;2023-12-22T12:12:32;92038.97;;;6.75;100.00
10606;BME280;5350;42.698;23.148;2023-12-22T12:15:06;92035.94;;;6.90;100.00
10606;BME280;5350;42.698;23.148;2023-12-22T12:17:37;92018.81;;;6.84;100.00
10606;BME280;5350;42.698;23.148;2023-12-22T12:20:06;92001.09;;;6.64;100.00
10606;BME280;5350;42.698;23.148;2023-12-22T12:22:33;91996.63;;;6.56;100.00
10606;BME280;5350;42.698;23.148;2023-12-22T12:25:00;91997.72;;;6.64;100.00
10606;BME280;5350;42.698;23.148;2023-12-22T12:27:27;91987.00;;;6.74;100.00
10606;BME280;5350;42.698;23.148;2023-12-22T12:29:54;91988.69;;;6.78;100.00
10606;BME280;5350;42.698;23.148;2023-12-22T12:32:23;91988.09;;;6.81;98.96
10606;BME280;5350;42.698;23.148;2023-12-22T12:34:51;91971.81;;;6.93;98.91
10606;BME280;5350;42.698;23.148;2023-12-22T12:37:19;91962.91;;;7.02;97.07
10606;BME280;5350;42.698;23.148;2023-12-22T12:39:46;91965.22;;;7.04;94.22
10606;BME280;5350;42.698;23.148;2023-12-22T12:42:15;91948.59;;;7.00;94.85
10606;BME280;5350;42.698;23.148;2023-12-22T12:44:43;91945.19;;;6.91;97.22
10606;BME280;5350;42.698;23.148;2023-12-22T12:47:14;91953.81;;;6.83;98.83
10606;BME280;5350;42.698;23.148;2023-12-22T12:49:40;91953.22;;;6.94;98.17
10606;BME280;5350;42.698;23.148;2023-12-22T12:52:13;91976.28;;;6.84;98.89
10606;BME280;5350;42.698;23.148;2023-12-22T12:54:40;91985.50;;;6.90;96.51
10606;BME280;5350;42.698;23.148;2023-12-22T12:57:07;92003.94;;;6.93;95.89
10606;BME280;5350;42.698;23.148;2023-12-22T12:59:44;91997.91;;;6.84;98.92
10606;BME280;5350;42.698;23.148;2023-12-22T13:02:11;92006.81;;;6.66;96.27
10606;BME280;5350;42.698;23.148;2023-12-22T13:04:38;92006.16;;;6.52;92.67
10606;BME280;5350;42.698;23.148;2023-12-22T13:07:05;91985.91;;;6.66;92.01